Time;durP1;ratioP1;P1;durP2;ratioP2;P2;SDS_P1;SDS_P2;PMS_P1;PMS_P2;Temp;Humidity;BMP_temperature;BMP_pressure;BME280_temperature;BME280_humidity;BME280_pressure;Samples;Min_cycle;Max_cycle;Signal;HPM_P1;HPM_P2
2021/10/10 00:00:15;;;;;;;;;;;;;;;20.72;42.34;96500.69;1045017;28;966;-54
2021/10/10 00:00:45;;;;;;;;;;;;;;;20.74;42.33;96500.41;1044920;28;690;-57
2021/10/10 00:01:16;;;;;;;;;;;;;;;20.73;42.35;96501.47;1044806;28;792;-57
2021/10/10 00:01:46;;;;;;;;;;;;;;;20.72;42.47;96498.03;1045024;28;756;-57
2021/10/10 00:02:16;;;;;;;;;;;;;;;20.73;42.20;96502.25;1044896;28;1013;-54
2021/10/10 00:02:47;;;;;;;;;;;;;;;20.73;42.34;96506.75;1043356;28;938;-57
2021/10/10 00:03:17;;;;;;;;;;;;;;;20.72;42.15;96500.69;1044503;28;1079;-57
2021/10/10 00:03:47;;;;;;;;;;;;;;;20.73;42.29;96504.09;1044622;28;1042;-55
2021/10/10 00:04:18;;;;;;;;;;;;;;;20.73;42.43;96501.47;1044226;28;891;-57
2021/10/10 00:04:48;;;;;;;;;;;;;;;20.72;42.36;96498.03;1044164;28;1820;-53
2021/10/10 00:05:19;;;;;;;;;;;;;;;20.73;42.38;96501.47;1044890;28;1014;-56
2021/10/10 00:05:49;;;;;;;;;;;;;;;20.72;42.31;96500.69;1044721;28;997;-56
2021/10/10 00:06:19;;;;;;;;;;;;;;;20.72;42.26;96498.03;1045068;28;835;-55
2021/10/10 00:06:50;;;;;;;;;;;;;;;20.72;42.46;96508.56;1044674;28;999;-56
2021/10/10 00:07:20;;;;;;;;;;;;;;;20.72;42.25;96503.31;1045108;28;851;-55
2021/10/10 00:07:50;;;;;;;;;;;;;;;20.71;42.22;96496.44;1043964;28;1010;-56
2021/10/10 00:08:21;;;;;;;;;;;;;;;20.71;42.27;96499.06;1044977;28;754;-54
2021/10/10 00:08:51;;;;;;;;;;;;;;;20.72;42.43;96500.69;1044882;28;2080;-57
2021/10/10 00:09:21;;;;;;;;;;;;;;;20.72;42.28;96499.88;1045199;28;472;-57
2021/10/10 00:09:52;;;;;;;;;;;;;;;20.72;42.53;96500.69;1044363;28;1426;-56
2021/10/10 00:10:22;;;;;;;;;;;;;;;20.72;42.61;96503.31;1044655;28;901;-55
2021/10/10 00:10:52;;;;;;;;;;;;;;;20.71;42.70;96499.06;1044528;28;806;-55
2021/10/10 00:11:23;;;;;;;;;;;;;;;20.72;42.39;96500.69;1040572;28;1504;-55
2021/10/10 00:11:53;;;;;;;;;;;;;;;20.72;42.39;96505.94;1044382;28;772;-54
2021/10/10 00:12:23;;;;;;;;;;;;;;;20.72;42.41;96499.88;1044425;28;1030;-55
2021/10/10 00:12:54;;;;;;;;;;;;;;;20.72;42.53;96505.16;1039777;28;836;-54
2021/10/10 00:13:24;;;;;;;;;;;;;;;20.71;42.35;96500.94;1044380;28;711;-55
2021/10/10 00:13:54;;;;;;;;;;;;;;;20.72;42.78;96499.88;1044288;28;806;-56
2021/10/10 00:14:25;;;;;;;;;;;;;;;20.71;42.33;96499.06;1044183;28;1026;-54
2021/10/10 00:14:55;;;;;;;;;;;;;;;20.72;42.56;96498.03;1044978;28;1172;-54
2021/10/10 00:15:25;;;;;;;;;;;;;;;20.72;42.46;96500.69;1044879;28;990;-57
2021/10/10 00:15:56;;;;;;;;;;;;;;;20.72;42.43;96498.03;1044801;28;702;-55
2021/10/10 00:16:26;;;;;;;;;;;;;;;20.72;42.46;96499.88;1044705;28;797;-55
2021/10/10 00:16:56;;;;;;;;;;;;;;;20.72;42.68;96494.59;1045041;28;860;-57
2021/10/10 00:17:27;;;;;;;;;;;;;;;20.71;42.29;96496.44;1044967;28;793;-54
2021/10/10 00:17:57;;;;;;;;;;;;;;;20.72;42.53;96502.50;1043079;28;726;-56
2021/10/10 00:18:27;;;;;;;;;;;;;;;20.71;42.06;96498.31;1044835;28;825;-55
2021/10/10 00:18:57;;;;;;;;;;;;;;;20.72;42.25;96498.03;1045002;28;1288;-57
2021/10/10 00:19:28;;;;;;;;;;;;;;;20.71;42.36;96499.06;1044917;28;1013;-56
2021/10/10 00:19:58;;;;;;;;;;;;;;;20.72;42.57;96497.25;1044846;28;1021;-58
2021/10/10 00:20:28;;;;;;;;;;;;;;;20.72;42.37;96489.34;1044877;28;951;-56
2021/10/10 00:20:59;;;;;;;;;;;;;;;20.71;42.57;96504.34;1045067;28;946;-54
2021/10/10 00:21:29;;;;;;;;;;;;;;;20.71;42.40;96498.31;1044993;28;508;-55
2021/10/10 00:21:59;;;;;;;;;;;;;;;20.70;42.37;96492.22;1044508;28;1053;-56
2021/10/10 00:22:29;;;;;;;;;;;;;;;20.70;42.43;96489.59;1044565;28;939;-55
2021/10/10 00:23:00;;;;;;;;;;;;;;;20.70;42.19;96492.22;1044439;28;788;-55
2021/10/10 00:23:30;;;;;;;;;;;;;;;20.70;42.15;96492.22;1044971;28;832;-54
2021/10/10 00:24:01;;;;;;;;;;;;;;;20.70;42.42;96497.50;1044902;28;882;-54
2021/10/10 00:24:31;;;;;;;;;;;;;;;20.70;42.40;96496.69;1043635;28;1276;-57
2021/10/10 00:25:02;;;;;;;;;;;;;;;20.70;42.69;96494.88;1044634;28;777;-55
2021/10/10 00:25:32;;;;;;;;;;;;;;;20.69;42.63;96495.91;1044735;28;721;-56
2021/10/10 00:26:03;;;;;;;;;;;;;;;20.70;42.55;96496.69;1044050;28;1456;-53
2021/10/10 00:26:33;;;;;;;;;;;;;;;20.69;42.50;96498.53;1044641;28;800;-52
2021/10/10 00:27:03;;;;;;;;;;;;;;;20.69;42.58;96498.53;1044607;28;1029;-53
2021/10/10 00:27:34;;;;;;;;;;;;;;;20.69;42.38;96495.13;1044583;28;863;-57
2021/10/10 00:28:05;;;;;;;;;;;;;;;20.69;42.56;96490.63;1044120;28;788;-56
2021/10/10 00:28:35;;;;;;;;;;;;;;;20.69;42.57;96498.53;1044589;28;1906;-55
2021/10/10 00:29:05;;;;;;;;;;;;;;;20.69;42.31;96490.63;1044790;28;1077;-55
2021/10/10 00:29:36;;;;;;;;;;;;;;;20.68;42.10;96491.69;1044582;28;1427;-55
2021/10/10 00:30:07;;;;;;;;;;;;;;;20.68;42.21;96489.06;1044444;28;1001;-52
2021/10/10 00:30:37;;;;;;;;;;;;;;;20.68;42.24;96491.69;1044411;28;947;-54
2021/10/10 00:31:07;;;;;;;;;;;;;;;20.69;42.34;96490.63;1044501;28;967;-55
2021/10/10 00:31:38;;;;;;;;;;;;;;;20.69;42.53;96495.91;1044745;28;816;-56
2021/10/10 00:32:08;;;;;;;;;;;;;;;20.69;42.23;96492.50;1044139;28;1779;-53
2021/10/10 00:32:39;;;;;;;;;;;;;;;20.70;42.37;96486.97;1043277;28;725;-55
2021/10/10 00:33:09;;;;;;;;;;;;;;;20.68;42.35;96489.06;1044184;28;832;-55
2021/10/10 00:33:39;;;;;;;;;;;;;;;20.69;42.35;96489.88;1044314;28;1089;-57
2021/10/10 00:34:09;;;;;;;;;;;;;;;20.69;42.41;96490.63;1044826;28;1095;-54
2021/10/10 00:34:40;;;;;;;;;;;;;;;20.68;42.44;96489.06;1044037;28;809;-57
2021/10/10 00:35:10;;;;;;;;;;;;;;;20.69;42.57;96490.63;1044706;28;839;-54
2021/10/10 00:35:40;;;;;;;;;;;;;;;20.69;42.27;96490.63;1044428;28;958;-57
2021/10/10 00:36:11;;;;;;;;;;;;;;;20.68;42.31;96490.91;1044823;28;973;-56
2021/10/10 00:36:41;;;;;;;;;;;;;;;20.68;42.60;96485.63;1044524;28;1046;-54
2021/10/10 00:37:11;;;;;;;;;;;;;;;20.67;42.66;96484.81;1045027;28;1025;-57
2021/10/10 00:37:42;;;;;;;;;;;;;;;20.70;42.51;96488.78;1044395;28;1010;-54
2021/10/10 00:38:12;;;;;;;;;;;;;;;20.69;42.95;96493.28;1044504;28;813;-54
2021/10/10 00:38:43;;;;;;;;;;;;;;;20.69;42.91;96485.38;1044624;28;1161;-56
2021/10/10 00:39:13;;;;;;;;;;;;;;;20.69;42.64;96484.59;1044896;28;804;-55
2021/10/10 00:39:44;;;;;;;;;;;;;;;20.68;42.45;96481.16;1044679;28;809;-57
2021/10/10 00:40:14;;;;;;;;;;;;;;;20.69;42.62;96488.00;1044943;28;804;-55
2021/10/10 00:40:44;;;;;;;;;;;;;;;20.68;42.64;96488.25;1044724;28;880;-55
2021/10/10 00:41:15;;;;;;;;;;;;;;;20.68;42.77;96488.25;1044831;28;760;-53
2021/10/10 00:41:45;;;;;;;;;;;;;;;20.68;42.60;96483.00;1044832;28;784;-57
2021/10/10 00:42:15;;;;;;;;;;;;;;;20.68;42.51;96488.25;1044434;28;1022;-55
2021/10/10 00:42:46;;;;;;;;;;;;;;;20.68;42.81;96485.63;1044589;28;819;-57
2021/10/10 00:43:16;;;;;;;;;;;;;;;20.68;42.63;96485.63;1044444;28;1026;-55
2021/10/10 00:43:46;;;;;;;;;;;;;;;20.68;42.80;96478.53;1044812;28;1025;-53
2021/10/10 00:44:17;;;;;;;;;;;;;;;20.68;42.97;96485.63;1044145;28;1037;-56
2021/10/10 00:44:47;;;;;;;;;;;;;;;20.67;42.86;96482.19;1044030;28;967;-57
2021/10/10 00:45:17;;;;;;;;;;;;;;;20.68;42.82;96477.72;1044448;28;765;-58
2021/10/10 00:45:48;;;;;;;;;;;;;;;20.68;42.70;96483.78;1044332;28;1224;-56
2021/10/10 00:46:18;;;;;;;;;;;;;;;20.68;42.60;96483.00;1044178;28;1046;-56
2021/10/10 00:46:49;;;;;;;;;;;;;;;20.68;42.92;96478.53;1044813;28;1014;-57
2021/10/10 00:47:19;;;;;;;;;;;;;;;20.68;42.74;96486.44;1044573;28;729;-55
2021/10/10 00:47:49;;;;;;;;;;;;;;;20.68;42.56;96483.78;1043404;28;713;-56
2021/10/10 00:48:19;;;;;;;;;;;;;;;20.67;42.69;96476.94;1044876;28;987;-55
2021/10/10 00:48:50;;;;;;;;;;;;;;;20.67;42.53;96474.28;1044653;28;1961;-56
2021/10/10 00:49:20;;;;;;;;;;;;;;;20.67;42.52;96476.94;1044720;28;1002;-56
2021/10/10 00:49:50;;;;;;;;;;;;;;;20.67;42.92;96476.94;1044457;28;1728;-56
2021/10/10 00:50:21;;;;;;;;;;;;;;;20.67;42.68;96479.56;1044798;28;821;-56
2021/10/10 00:50:51;;;;;;;;;;;;;;;20.68;42.99;96475.09;1044836;28;1010;-55
2021/10/10 00:51:21;;;;;;;;;;;;;;;20.68;42.53;96483.78;1044714;28;793;-57
2021/10/10 00:51:52;;;;;;;;;;;;;;;20.68;42.64;96478.53;1044121;28;1028;-56
2021/10/10 00:52:22;;;;;;;;;;;;;;;20.69;42.94;96479.31;1039699;28;804;-55
2021/10/10 00:52:53;;;;;;;;;;;;;;;20.68;42.82;96478.53;1039906;28;990;-57
2021/10/10 00:53:23;;;;;;;;;;;;;;;20.69;42.77;96480.09;1040389;28;828;-56
2021/10/10 00:53:54;;;;;;;;;;;;;;;20.69;42.92;96476.69;1044143;28;839;-57
2021/10/10 00:54:24;;;;;;;;;;;;;;;20.68;42.78;96477.72;1043850;28;775;-58
2021/10/10 00:54:55;;;;;;;;;;;;;;;20.68;42.95;96481.16;1036386;28;928;-55
2021/10/10 00:55:26;;;;;;;;;;;;;;;20.67;42.61;96479.56;1039189;28;966;-57
2021/10/10 00:55:56;;;;;;;;;;;;;;;20.67;42.81;96479.56;1039853;28;967;-54
2021/10/10 00:56:26;;;;;;;;;;;;;;;20.67;42.98;96479.56;1036401;28;836;-53
2021/10/10 00:56:57;;;;;;;;;;;;;;;20.67;42.86;96482.19;1040179;28;828;-54
2021/10/10 00:57:27;;;;;;;;;;;;;;;20.66;42.58;96480.63;1036121;28;978;-56
2021/10/10 00:57:58;;;;;;;;;;;;;;;20.67;42.80;96476.16;1036083;28;983;-54
2021/10/10 00:58:28;;;;;;;;;;;;;;;20.66;42.69;96480.63;1035836;28;918;-53
2021/10/10 00:58:59;;;;;;;;;;;;;;;20.66;42.82;96475.34;1036107;28;1275;-53
2021/10/10 00:59:29;;;;;;;;;;;;;;;20.67;42.82;96482.19;1040192;28;1337;-57
2021/10/10 01:00:00;;;;;;;;;;;;;;;20.67;43.02;96482.19;1040436;28;848;-56
2021/10/10 01:00:30;;;;;;;;;;;;;;;20.66;42.96;96483.25;1044215;28;756;-57
2021/10/10 01:01:00;;;;;;;;;;;;;;;20.68;42.93;96483.00;1044605;28;1025;-53
2021/10/10 01:01:31;;;;;;;;;;;;;;;20.67;43.01;96479.56;1044287;28;826;-55
2021/10/10 01:02:01;;;;;;;;;;;;;;;20.68;43.16;96483.00;1044446;28;847;-54
2021/10/10 01:02:32;;;;;;;;;;;;;;;20.66;42.94;96477.19;1044305;28;800;-55
2021/10/10 01:03:02;;;;;;;;;;;;;;;20.67;43.14;96482.19;1043858;28;764;-57
2021/10/10 01:03:32;;;;;;;;;;;;;;;20.66;43.19;96480.63;1044124;28;856;-55
2021/10/10 01:04:03;;;;;;;;;;;;;;;20.67;43.12;96481.44;1044787;28;1350;-53
2021/10/10 01:04:33;;;;;;;;;;;;;;;20.67;42.95;96484.06;1043880;28;821;-53
2021/10/10 01:05:04;;;;;;;;;;;;;;;20.67;42.90;96481.44;1044816;28;888;-56
2021/10/10 01:05:34;;;;;;;;;;;;;;;20.66;42.94;96485.88;1044097;28;1345;-55
2021/10/10 01:06:05;;;;;;;;;;;;;;;20.66;43.16;96485.88;1044330;28;886;-54
2021/10/10 01:06:36;;;;;;;;;;;;;;;20.66;43.17;96485.09;1044686;28;739;-54
2021/10/10 01:07:06;;;;;;;;;;;;;;;20.66;43.13;96485.88;1040388;28;1540;-52
2021/10/10 01:07:37;;;;;;;;;;;;;;;20.66;43.08;96480.63;1043426;28;1010;-56
2021/10/10 01:08:07;;;;;;;;;;;;;;;20.66;43.22;96483.25;1044264;28;796;-56
2021/10/10 01:08:49;;;;;;;;;;;;;;;20.66;43.16;96485.88;1041569;28;1965;-57
2021/10/10 01:09:20;;;;;;;;;;;;;;;20.64;43.32;96480.09;1044467;28;833;-54
2021/10/10 01:09:50;;;;;;;;;;;;;;;20.65;42.87;96483.53;1040173;28;769;-54
2021/10/10 01:10:21;;;;;;;;;;;;;;;20.65;43.03;96484.28;1036196;28;1596;-54
2021/10/10 01:10:52;;;;;;;;;;;;;;;20.65;43.09;96486.94;1040327;28;797;-51
2021/10/10 01:11:26;;;;;;;;;;;;;;;20.65;42.98;96484.28;1040802;28;1069;-53
2021/10/10 01:11:57;;;;;;;;;;;;;;;20.64;43.10;96480.09;1044018;28;863;-55
2021/10/10 01:12:47;;;;;;;;;;;;;;;20.64;43.06;96488.00;1037864;28;1097;-56
2021/10/10 01:13:38;;;;;;;;;;;;;;;20.64;43.09;96481.91;1043855;28;812;-57
2021/10/10 01:14:28;;;;;;;;;;;;;;;20.64;43.05;96482.72;1044311;28;2073;-55
2021/10/10 01:14:59;;;;;;;;;;;;;;;20.65;43.21;96486.16;1044735;28;764;-56
2021/10/10 01:15:30;;;;;;;;;;;;;;;20.64;43.13;96481.91;1044267;28;1490;-58
2021/10/10 01:16:00;;;;;;;;;;;;;;;20.64;43.22;96484.56;1044270;28;820;-56
2021/10/10 01:16:30;;;;;;;;;;;;;;;20.63;43.32;96486.38;1038449;28;1490;-57
2021/10/10 01:17:22;;;;;;;;;;;;;;;20.63;43.18;96485.63;1039431;28;1850;-53
2021/10/10 01:18:18;;;;;;;;;;;;;;;20.64;43.20;96489.81;1039142;28;1203;-55
2021/10/10 01:19:08;;;;;;;;;;;;;;;20.63;43.15;96488.25;1044412;28;1156;-57
2021/10/10 01:19:46;;;;;;;;;;;;;;;20.62;43.17;96484.81;1043026;28;1627;-57
2021/10/10 01:20:17;;;;;;;;;;;;;;;20.62;43.34;96487.47;1043961;28;796;-55
2021/10/10 01:20:47;;;;;;;;;;;;;;;20.63;43.39;96486.38;1044289;28;788;-55
2021/10/10 01:21:17;;;;;;;;;;;;;;;20.63;43.47;96480.34;1044361;28;1009;-55
2021/10/10 01:21:48;;;;;;;;;;;;;;;20.64;43.39;96490.63;1044039;28;816;-57
2021/10/10 01:22:18;;;;;;;;;;;;;;;20.63;43.28;96483.75;1043908;28;808;-57
2021/10/10 01:22:58;;;;;;;;;;;;;;;20.62;43.32;96487.47;1043865;28;1328;-56
2021/10/10 01:23:48;;;;;;;;;;;;;;;20.61;43.21;96483.22;1041291;28;1239;-55
2021/10/10 01:24:38;;;;;;;;;;;;;;;20.63;43.18;96485.63;1040506;28;1096;-55
2021/10/10 01:25:29;;;;;;;;;;;;;;;20.62;43.25;96482.19;1044241;28;2254;-55
2021/10/10 01:25:59;;;;;;;;;;;;;;;20.62;43.18;96484.81;1044771;28;835;-55
2021/10/10 01:26:30;;;;;;;;;;;;;;;20.62;43.21;96479.56;1044230;28;851;-56
2021/10/10 01:27:01;;;;;;;;;;;;;;;20.63;43.41;96480.34;1044410;28;833;-56
2021/10/10 01:27:31;;;;;;;;;;;;;;;20.61;43.22;96483.22;1044489;28;871;-56
2021/10/10 01:28:02;;;;;;;;;;;;;;;20.62;43.14;96482.19;1044424;28;784;-56
2021/10/10 01:28:33;;;;;;;;;;;;;;;20.63;43.22;96483.75;1043980;28;1989;-54
2021/10/10 01:29:24;;;;;;;;;;;;;;;20.65;43.17;96479.03;1044240;28;1036;-55
2021/10/10 01:30:14;;;;;;;;;;;;;;;20.65;43.05;96481.66;1044440;28;1845;-57
2021/10/10 01:30:47;;;;;;;;;;;;;;;20.65;43.39;96476.38;1043680;28;1206;-51
2021/10/10 01:31:20;;;;;;;;;;;;;;;20.65;43.35;96473.00;1044310;28;974;-55
2021/10/10 01:31:51;;;;;;;;;;;;;;;20.65;43.24;96480.88;1043781;28;856;-55
2021/10/10 01:32:22;;;;;;;;;;;;;;;20.64;43.12;96484.56;1044101;28;799;-57
2021/10/10 01:32:53;;;;;;;;;;;;;;;20.65;43.05;96484.28;1042643;28;770;-53
2021/10/10 01:33:23;;;;;;;;;;;;;;;20.65;42.98;96476.38;1044229;28;1002;-53
2021/10/10 01:33:54;;;;;;;;;;;;;;;20.65;43.13;96479.03;1043728;28;1309;-57
2021/10/10 01:34:24;;;;;;;;;;;;;;;20.66;43.05;96480.63;1043858;28;1073;-57
2021/10/10 01:34:54;;;;;;;;;;;;;;;20.67;42.88;96478.78;1044280;28;939;-56
2021/10/10 01:35:25;;;;;;;;;;;;;;;20.67;42.93;96476.16;1044135;28;807;-53
2021/10/10 01:35:55;;;;;;;;;;;;;;;20.68;43.01;96477.72;1044220;28;765;-55
2021/10/10 01:36:26;;;;;;;;;;;;;;;20.69;42.97;96477.47;1044495;28;788;-52
2021/10/10 01:36:57;;;;;;;;;;;;;;;20.70;42.99;96475.63;1044218;28;872;-54
2021/10/10 01:37:27;;;;;;;;;;;;;;;20.69;42.87;96474.06;1044544;28;966;-54
2021/10/10 01:37:58;;;;;;;;;;;;;;;20.69;43.08;96472.19;1044183;28;772;-55
2021/10/10 01:38:28;;;;;;;;;;;;;;;20.71;42.96;96477.22;1044587;28;855;-52
2021/10/10 01:38:58;;;;;;;;;;;;;;;20.69;43.01;96469.56;1043723;28;1407;-51
2021/10/10 01:39:28;;;;;;;;;;;;;;;20.68;43.02;96478.53;1044379;28;1002;-53
2021/10/10 01:39:59;;;;;;;;;;;;;;;20.68;43.10;96478.53;1044514;28;1014;-53
2021/10/10 01:40:31;;;;;;;;;;;;;;;20.66;43.02;96470.09;1044363;28;847;-56
2021/10/10 01:41:01;;;;;;;;;;;;;;;20.67;43.23;96469.03;1044122;28;1074;-56
2021/10/10 01:41:32;;;;;;;;;;;;;;;20.67;43.10;96474.28;1044417;28;1018;-55
2021/10/10 01:42:02;;;;;;;;;;;;;;;20.67;43.17;96468.25;1043959;28;1398;-56
2021/10/10 01:42:33;;;;;;;;;;;;;;;20.67;42.90;96473.53;1043107;28;800;-54
2021/10/10 01:43:03;;;;;;;;;;;;;;;20.67;43.62;96471.66;1043801;28;1034;-53
2021/10/10 01:43:34;;;;;;;;;;;;;;;20.67;43.16;96473.53;1040142;28;812;-56
2021/10/10 01:44:05;;;;;;;;;;;;;;;20.68;43.47;96477.72;1043682;28;1034;-55
2021/10/10 01:44:35;;;;;;;;;;;;;;;20.67;43.33;96476.94;1039277;28;1276;-52
2021/10/10 01:45:19;;;;;;;;;;;;;;;20.67;43.50;96479.56;1039873;28;998;-53
2021/10/10 01:45:49;;;;;;;;;;;;;;;20.66;43.56;96475.34;1043932;28;800;-57
2021/10/10 01:46:19;;;;;;;;;;;;;;;20.67;43.16;96469.03;1044178;28;804;-52
2021/10/10 01:46:50;;;;;;;;;;;;;;;20.66;43.77;96475.34;1044460;28;1340;-52
2021/10/10 01:47:20;;;;;;;;;;;;;;;20.66;43.30;96478.00;1044342;28;808;-56
2021/10/10 01:47:50;;;;;;;;;;;;;;;20.66;43.30;96470.09;1043271;28;784;-56
2021/10/10 01:48:21;;;;;;;;;;;;;;;20.67;43.08;96476.94;1044598;28;791;-52
2021/10/10 01:48:51;;;;;;;;;;;;;;;20.65;43.81;96481.66;1043282;28;1906;-55
2021/10/10 01:49:21;;;;;;;;;;;;;;;20.66;43.55;96477.19;1043976;28;772;-53
2021/10/10 01:49:52;;;;;;;;;;;;;;;20.65;43.52;96476.38;1044094;28;810;-56
2021/10/10 01:50:22;;;;;;;;;;;;;;;20.67;43.61;96476.16;1044162;28;1014;-55
2021/10/10 01:50:52;;;;;;;;;;;;;;;20.66;43.49;96477.19;1044118;28;788;-55
2021/10/10 01:51:23;;;;;;;;;;;;;;;20.66;43.47;96475.34;1044368;28;804;-55
2021/10/10 01:51:53;;;;;;;;;;;;;;;20.67;43.59;96476.94;1044490;28;832;-55
2021/10/10 01:52:24;;;;;;;;;;;;;;;20.66;43.66;96470.09;1043413;28;844;-53
2021/10/10 01:52:54;;;;;;;;;;;;;;;20.66;43.87;96475.34;1039542;28;1477;-54
2021/10/10 01:53:24;;;;;;;;;;;;;;;20.66;43.53;96466.66;1039929;28;875;-54
2021/10/10 01:53:55;;;;;;;;;;;;;;;20.66;43.73;96474.56;1039605;28;983;-54
2021/10/10 01:54:25;;;;;;;;;;;;;;;20.66;43.41;96475.34;1039685;28;788;-51
2021/10/10 01:54:55;;;;;;;;;;;;;;;20.65;43.54;96471.13;1044350;28;1088;-57
2021/10/10 01:55:26;;;;;;;;;;;;;;;20.66;43.69;96470.09;1044350;28;1070;-50
2021/10/10 01:55:56;;;;;;;;;;;;;;;20.65;43.88;96473.75;1044025;28;788;-53
2021/10/10 01:56:27;;;;;;;;;;;;;;;20.66;43.48;96475.34;1044816;28;744;-50
2021/10/10 01:56:57;;;;;;;;;;;;;;;20.66;43.44;96470.09;1044603;28;1070;-54
2021/10/10 01:57:27;;;;;;;;;;;;;;;20.66;43.70;96472.72;1044540;28;776;-55
2021/10/10 01:57:58;;;;;;;;;;;;;;;20.66;43.81;96475.34;1044201;28;1022;-50
2021/10/10 01:58:28;;;;;;;;;;;;;;;20.65;43.67;96468.50;1043878;28;803;-55
2021/10/10 01:58:58;;;;;;;;;;;;;;;20.65;43.70;96473.75;1043843;28;1339;-50
2021/10/10 01:59:29;;;;;;;;;;;;;;;20.65;43.71;96470.34;1044283;28;908;-54
2021/10/10 01:59:59;;;;;;;;;;;;;;;20.65;44.04;96465.84;1044245;28;974;-56
2021/10/10 02:00:29;;;;;;;;;;;;;;;20.65;43.97;96473.75;1044626;28;994;-53
2021/10/10 02:01:00;;;;;;;;;;;;;;;20.66;43.56;96470.09;1044624;28;1097;-55
2021/10/10 02:01:30;;;;;;;;;;;;;;;20.64;43.79;96463.47;1044747;28;777;-52
2021/10/10 02:02:00;;;;;;;;;;;;;;;20.65;43.97;96471.13;1044304;28;788;-55
2021/10/10 02:02:31;;;;;;;;;;;;;;;20.64;43.91;96472.19;1044298;28;824;-53
2021/10/10 02:03:01;;;;;;;;;;;;;;;20.64;43.93;96474.03;1043404;28;796;-56
2021/10/10 02:03:32;;;;;;;;;;;;;;;20.64;43.68;96463.47;1044307;28;811;-55
2021/10/10 02:04:02;;;;;;;;;;;;;;;20.63;43.93;96460.03;1043604;28;821;-55
2021/10/10 02:04:32;;;;;;;;;;;;;;;20.64;43.72;96471.38;1044156;28;812;-56
2021/10/10 02:05:03;;;;;;;;;;;;;;;20.64;43.34;96466.91;1044526;28;804;-53
2021/10/10 02:05:34;;;;;;;;;;;;;;;20.64;43.62;96466.13;1044318;28;863;-56
2021/10/10 02:06:04;;;;;;;;;;;;;;;20.64;43.61;96469.56;1044373;28;780;-51
2021/10/10 02:06:35;;;;;;;;;;;;;;;20.64;43.75;96471.38;1044885;28;887;-52
2021/10/10 02:07:05;;;;;;;;;;;;;;;20.64;43.86;96468.75;1044546;28;792;-55
2021/10/10 02:07:36;;;;;;;;;;;;;;;20.63;43.51;96467.94;1043450;28;1205;-52
2021/10/10 02:08:06;;;;;;;;;;;;;;;20.63;44.01;96465.31;1044129;28;773;-52
2021/10/10 02:08:36;;;;;;;;;;;;;;;20.62;43.87;96461.13;1044282;28;1906;-51
2021/10/10 02:09:07;;;;;;;;;;;;;;;20.63;43.69;96465.31;1043826;28;1033;-52
2021/10/10 02:09:41;;;;;;;;;;;;;;;20.63;43.73;96461.91;1044589;28;796;-54
2021/10/10 02:10:11;;;;;;;;;;;;;;;20.63;43.73;96464.53;1044124;28;1378;-51
2021/10/10 02:10:42;;;;;;;;;;;;;;;20.62;43.83;96458.47;1043920;28;797;-54
2021/10/10 02:11:12;;;;;;;;;;;;;;;20.63;44.02;96464.53;1044188;28;911;-55
2021/10/10 02:11:42;;;;;;;;;;;;;;;20.62;43.92;96460.31;1044044;28;843;-51
2021/10/10 02:12:12;;;;;;;;;;;;;;;20.61;43.95;96462.16;1043772;28;820;-56
2021/10/10 02:12:43;;;;;;;;;;;;;;;20.61;43.87;96459.50;1044309;28;796;-55
2021/10/10 02:13:13;;;;;;;;;;;;;;;20.62;44.13;96463.75;1044336;28;789;-53
2021/10/10 02:13:43;;;;;;;;;;;;;;;20.63;43.90;96469.81;1044534;28;836;-54
2021/10/10 02:14:14;;;;;;;;;;;;;;;20.62;43.98;96469.00;1043845;28;757;-55
2021/10/10 02:14:44;;;;;;;;;;;;;;;20.62;43.73;96465.59;1044266;28;1077;-52
2021/10/10 02:15:15;;;;;;;;;;;;;;;20.63;44.12;96464.53;1044526;28;852;-51
2021/10/10 02:15:45;;;;;;;;;;;;;;;20.62;43.76;96460.31;1044308;28;769;-57
2021/10/10 02:16:15;;;;;;;;;;;;;;;20.63;43.86;96460.03;1044518;28;1089;-53
2021/10/10 02:16:46;;;;;;;;;;;;;;;20.62;43.82;96458.47;1044429;28;962;-55
2021/10/10 02:17:16;;;;;;;;;;;;;;;20.62;43.76;96461.13;1044519;28;886;-56
2021/10/10 02:17:46;;;;;;;;;;;;;;;20.62;43.88;96463.75;1043162;28;730;-53
2021/10/10 02:18:17;;;;;;;;;;;;;;;20.62;43.82;96461.13;1044477;28;780;-54
2021/10/10 02:18:47;;;;;;;;;;;;;;;20.62;43.71;96466.38;1044215;28;1322;-53
2021/10/10 02:19:17;;;;;;;;;;;;;;;20.62;43.81;96462.94;1044246;28;1014;-56
2021/10/10 02:19:47;;;;;;;;;;;;;;;20.61;44.08;96464.78;1044312;28;970;-54
2021/10/10 02:20:18;;;;;;;;;;;;;;;20.61;43.85;96456.88;1044683;28;789;-54
2021/10/10 02:20:48;;;;;;;;;;;;;;;20.61;43.73;96459.50;1044321;28;1005;-55
2021/10/10 02:21:18;;;;;;;;;;;;;;;20.61;43.83;96456.09;1044485;28;1081;-54
2021/10/10 02:21:49;;;;;;;;;;;;;;;20.62;43.64;96457.69;1044439;28;985;-55
2021/10/10 02:22:19;;;;;;;;;;;;;;;20.61;43.40;96453.47;1043901;28;753;-53
2021/10/10 02:22:49;;;;;;;;;;;;;;;20.61;43.79;96454.25;1043940;28;1022;-55
2021/10/10 02:23:20;;;;;;;;;;;;;;;20.60;43.78;96454.50;1044429;28;923;-56
2021/10/10 02:23:50;;;;;;;;;;;;;;;20.60;43.92;96450.03;1043584;28;812;-54
2021/10/10 02:24:20;;;;;;;;;;;;;;;20.60;44.01;96454.50;1043398;28;777;-56
2021/10/10 02:24:51;;;;;;;;;;;;;;;20.60;43.75;96465.84;1043640;28;796;-55
2021/10/10 02:25:21;;;;;;;;;;;;;;;20.60;43.89;96462.41;1043961;28;786;-56
2021/10/10 02:25:51;;;;;;;;;;;;;;;20.59;44.11;96464.25;1043760;28;709;-53
2021/10/10 02:26:22;;;;;;;;;;;;;;;20.60;43.88;96459.78;1044467;28;886;-54
2021/10/10 02:26:52;;;;;;;;;;;;;;;20.61;43.81;96459.50;1044222;28;939;-56
2021/10/10 02:27:22;;;;;;;;;;;;;;;20.60;43.67;96460.56;1044454;28;1191;-52
2021/10/10 02:27:53;;;;;;;;;;;;;;;20.60;44.01;96455.31;1044012;28;607;-53
2021/10/10 02:28:23;;;;;;;;;;;;;;;20.59;43.77;96456.34;1044563;28;797;-54
2021/10/10 02:28:53;;;;;;;;;;;;;;;20.59;43.92;96456.34;1043606;28;1906;-56
2021/10/10 02:29:26;;;;;;;;;;;;;;;20.60;43.67;96455.31;1044356;28;825;-55
2021/10/10 02:29:56;;;;;;;;;;;;;;;20.60;43.87;96459.78;1044332;28;789;-54
2021/10/10 02:30:27;;;;;;;;;;;;;;;20.59;43.93;96458.97;1044338;28;1081;-55
2021/10/10 02:30:57;;;;;;;;;;;;;;;20.59;44.10;96456.34;1044091;28;737;-55
2021/10/10 02:31:28;;;;;;;;;;;;;;;20.59;43.94;96458.97;1044432;28;730;-56
2021/10/10 02:31:58;;;;;;;;;;;;;;;20.58;44.04;96457.41;1044353;28;792;-53
2021/10/10 02:32:28;;;;;;;;;;;;;;;20.59;43.54;96453.72;1044130;28;749;-53
2021/10/10 02:32:59;;;;;;;;;;;;;;;20.59;43.81;96453.72;1042778;28;1085;-53
2021/10/10 02:33:29;;;;;;;;;;;;;;;20.59;44.01;96452.91;1043469;28;970;-53
2021/10/10 02:33:59;;;;;;;;;;;;;;;20.59;43.83;96452.91;1043949;28;1041;-53
2021/10/10 02:34:30;;;;;;;;;;;;;;;20.59;43.88;96456.34;1043897;28;1074;-52
2021/10/10 02:35:00;;;;;;;;;;;;;;;20.58;43.87;96451.34;1044080;28;979;-52
2021/10/10 02:35:30;;;;;;;;;;;;;;;20.58;44.09;96454.78;1044271;28;919;-53
2021/10/10 02:36:01;;;;;;;;;;;;;;;20.58;43.92;96452.13;1043860;28;1341;-53
2021/10/10 02:36:31;;;;;;;;;;;;;;;20.58;43.88;96449.50;1044036;28;734;-54
2021/10/10 02:37:01;;;;;;;;;;;;;;;20.57;44.17;96453.16;1040008;28;1370;-54
2021/10/10 02:37:32;;;;;;;;;;;;;;;20.58;44.01;96459.25;1035812;28;1482;-52
2021/10/10 02:38:02;;;;;;;;;;;;;;;20.57;43.96;96455.81;1035978;28;861;-54
2021/10/10 02:38:32;;;;;;;;;;;;;;;20.57;44.08;96450.53;1031731;28;1478;-51
2021/10/10 02:39:03;;;;;;;;;;;;;;;20.58;43.86;96452.13;1035599;28;825;-54
2021/10/10 02:39:34;;;;;;;;;;;;;;;20.57;44.04;96449.75;1035962;28;1510;-54
2021/10/10 02:40:04;;;;;;;;;;;;;;;20.57;43.94;96450.53;1040241;28;850;-55
2021/10/10 02:40:35;;;;;;;;;;;;;;;20.57;43.96;96450.53;1044003;28;1588;-52
2021/10/10 02:41:05;;;;;;;;;;;;;;;20.57;43.92;96445.28;1044196;28;1097;-54
2021/10/10 02:41:35;;;;;;;;;;;;;;;20.57;43.96;96450.53;1044212;28;945;-54
2021/10/10 02:42:06;;;;;;;;;;;;;;;20.57;43.96;96455.81;1044186;28;1034;-51
2021/10/10 02:42:36;;;;;;;;;;;;;;;20.58;43.59;96448.69;1044257;28;855;-54
2021/10/10 02:43:07;;;;;;;;;;;;;;;20.56;44.06;96451.59;1044192;28;1037;-55
2021/10/10 02:43:37;;;;;;;;;;;;;;;20.56;44.09;96454.25;1044150;28;923;-55
2021/10/10 02:44:07;;;;;;;;;;;;;;;20.56;44.09;96454.25;1043918;28;817;-52
2021/10/10 02:44:38;;;;;;;;;;;;;;;20.57;43.51;96455.00;1043992;28;862;-52
2021/10/10 02:45:08;;;;;;;;;;;;;;;20.57;43.97;96453.16;1044399;28;1033;-56
2021/10/10 02:45:38;;;;;;;;;;;;;;;20.57;43.84;96455.81;1043949;28;1009;-53
2021/10/10 02:46:09;;;;;;;;;;;;;;;20.57;43.89;96461.06;1044442;28;1093;-54